Terminal Aerodrome Forecast
Issued by NWS North Platte, NE

Home | Current Version | Previous Version | Text Only | Print | Product List | Glossary On
Versions: 1 2 3 4 5 6 7 8 9 10 11 12 13 14
000
FTUS43 KLBF 290600 AAA
TAFLBF
TAF AMD
KLBF 290641Z 2907/3006 35020G30KT P6SM OVC020
     FM290900 33015G25KT P6SM OVC025
     FM291500 33012G17KT P6SM SCT028
     FM291800 34011KT P6SM SCT250
     FM300000 VRB04KT P6SM SCT250=

USA.gov is the U.S. government's official web portal to all federal, state and local government web resources and services.